WZZ15W LOWW-LHBP
Flight info
| Callsign | WZZ15W |
|---|---|
| Flight time | 0h 27m |
| Altitude | 19000 |
| Route | ADAMA2B/16 ADAMA Z647 ANEXA |
| Aircraft | A20N/M-SDE2E3FGHIRWXY/LB1 |
Departure
| Time | 2026-05-04 19:05 |
|---|---|
| Airport | Vienna International Airport (LOWW) |
Arrival
| Time | 2026-05-04 19:32 |
|---|---|
| Airport | Budapest Liszt Ferenc International Airport (LHBP) |
| Time | Latitude | Longitude | Altitude | Speed | Heading |
|---|---|---|---|---|---|
| 2026-05-04 18:23 | 48.11936 | 16.55802 | 597 ft | 0 kts | 295° |
| 2026-05-04 18:49 | 48.11931 | 16.55816 | 597 ft | 2 kts | 295° |
| 2026-05-04 18:49 | 48.11925 | 16.55835 | 597 ft | 2 kts | 295° |
| 2026-05-04 18:50 | 48.11919 | 16.55854 | 597 ft | 2 kts | 295° |
| 2026-05-04 18:50 | 48.11913 | 16.55873 | 597 ft | 2 kts | 295° |
| 2026-05-04 18:50 | 48.11907 | 16.55891 | 598 ft | 2 kts | 295° |
| 2026-05-04 18:50 | 48.11901 | 16.55909 | 598 ft | 2 kts | 295° |
| 2026-05-04 18:51 | 48.11900 | 16.55913 | 598 ft | 0 kts | 295° |
| 2026-05-04 18:53 | 48.11897 | 16.55906 | 598 ft | 1 kts | 242° |
| 2026-05-04 18:53 | 48.11854 | 16.55869 | 600 ft | 13 kts | 206° |
| 2026-05-04 18:54 | 48.11782 | 16.55846 | 602 ft | 8 kts | 161° |
| 2026-05-04 18:54 | 48.11750 | 16.55897 | 603 ft | 8 kts | 118° |
| 2026-05-04 18:54 | 48.11709 | 16.56028 | 609 ft | 21 kts | 115° |
| 2026-05-04 18:54 | 48.11634 | 16.56259 | 602 ft | 25 kts | 116° |
| 2026-05-04 18:55 | 48.11560 | 16.56479 | 601 ft | 23 kts | 116° |
| 2026-05-04 18:55 | 48.11441 | 16.56847 | 618 ft | 17 kts | 115° |
| 2026-05-04 18:55 | 48.11395 | 16.56988 | 614 ft | 13 kts | 116° |
| 2026-05-04 18:56 | 48.11359 | 16.57098 | 610 ft | 11 kts | 116° |
| 2026-05-04 18:56 | 48.11318 | 16.57225 | 612 ft | 18 kts | 117° |
| 2026-05-04 18:56 | 48.11349 | 16.57356 | 613 ft | 13 kts | 27° |
| 2026-05-04 18:56 | 48.11428 | 16.57414 | 613 ft | 17 kts | 27° |
| 2026-05-04 18:57 | 48.11590 | 16.57438 | 615 ft | 28 kts | 343° |
| 2026-05-04 18:57 | 48.11771 | 16.57360 | 616 ft | 25 kts | 344° |
| 2026-05-04 18:57 | 48.11915 | 16.57300 | 617 ft | 18 kts | 344° |
| 2026-05-04 18:57 | 48.11983 | 16.57318 | 615 ft | 0 kts | 57° |
| 2026-05-04 18:58 | 48.11984 | 16.57318 | 615 ft | 0 kts | 57° |
| 2026-05-04 18:59 | 48.12003 | 16.57401 | 609 ft | 7 kts | 77° |
| 2026-05-04 18:59 | 48.12009 | 16.57436 | 621 ft | 3 kts | 78° |
| 2026-05-04 18:59 | 48.12010 | 16.57505 | 608 ft | 10 kts | 102° |
| 2026-05-04 18:59 | 48.12000 | 16.57563 | 613 ft | 0 kts | 103° |
| 2026-05-04 19:03 | 48.11987 | 16.57645 | 611 ft | 19 kts | 104° |
| 2026-05-04 19:03 | 48.11924 | 16.57829 | 616 ft | 18 kts | 143° |
| 2026-05-04 19:03 | 48.11887 | 16.57858 | 619 ft | 0 kts | 163° |
| 2026-05-04 19:04 | 48.11814 | 16.57889 | 613 ft | 40 kts | 165° |
| 2026-05-04 19:04 | 48.11253 | 16.58126 | 614 ft | 126 kts | 164° |
| 2026-05-04 19:04 | 48.10243 | 16.58544 | 1011 ft | 156 kts | 163° |
| 2026-05-04 19:05 | 48.09253 | 16.58956 | 2100 ft | 151 kts | 165° |
| 2026-05-04 19:05 | 48.08145 | 16.59425 | 2947 ft | 178 kts | 167° |
| 2026-05-04 19:05 | 48.06892 | 16.59965 | 3887 ft | 195 kts | 166° |
| 2026-05-04 19:05 | 48.05620 | 16.60825 | 4582 ft | 208 kts | 152° |
| 2026-05-04 19:06 | 48.04540 | 16.62343 | 5060 ft | 222 kts | 129° |
| 2026-05-04 19:06 | 48.03877 | 16.64495 | 6084 ft | 233 kts | 113° |
| 2026-05-04 19:06 | 48.03194 | 16.66663 | 7016 ft | 234 kts | 123° |
| 2026-05-04 19:06 | 48.02287 | 16.68874 | 7638 ft | 266 kts | 125° |
| 2026-05-04 19:07 | 48.01255 | 16.71278 | 7929 ft | 281 kts | 125° |
| 2026-05-04 19:07 | 48.00212 | 16.73709 | 7999 ft | 282 kts | 125° |
| 2026-05-04 19:07 | 47.99151 | 16.76185 | 8005 ft | 283 kts | 125° |
| 2026-05-04 19:07 | 47.98088 | 16.78663 | 8006 ft | 283 kts | 125° |
| 2026-05-04 19:08 | 47.97179 | 16.81274 | 8015 ft | 286 kts | 113° |
| 2026-05-04 19:08 | 47.96698 | 16.84201 | 8426 ft | 297 kts | 102° |
| 2026-05-04 19:08 | 47.96411 | 16.87318 | 9563 ft | 304 kts | 99° |
| 2026-05-04 19:08 | 47.96183 | 16.90441 | 10941 ft | 306 kts | 98° |
| 2026-05-04 19:09 | 47.95964 | 16.93681 | 11853 ft | 322 kts | 98° |
| 2026-05-04 19:09 | 47.95747 | 16.97060 | 12888 ft | 332 kts | 98° |
| 2026-05-04 19:09 | 47.95534 | 17.00470 | 13977 ft | 338 kts | 98° |
| 2026-05-04 19:09 | 47.95315 | 17.04000 | 14967 ft | 344 kts | 97° |
| 2026-05-04 19:10 | 47.95094 | 17.07568 | 15649 ft | 348 kts | 97° |
| 2026-05-04 19:10 | 47.94871 | 17.11174 | 16156 ft | 351 kts | 97° |
| 2026-05-04 19:10 | 47.94644 | 17.14814 | 16838 ft | 355 kts | 97° |
| 2026-05-04 19:10 | 47.94414 | 17.18488 | 17390 ft | 357 kts | 97° |
| 2026-05-04 19:11 | 47.94180 | 17.22194 | 17915 ft | 360 kts | 97° |
| 2026-05-04 19:11 | 47.93944 | 17.25929 | 18372 ft | 363 kts | 97° |
| 2026-05-04 19:11 | 47.93705 | 17.29689 | 18608 ft | 365 kts | 96° |
| 2026-05-04 19:11 | 47.93464 | 17.33460 | 18855 ft | 367 kts | 96° |
| 2026-05-04 19:12 | 47.93228 | 17.37144 | 18954 ft | 352 kts | 96° |
| 2026-05-04 19:12 | 47.92783 | 17.44038 | 18979 ft | 323 kts | 96° |
| 2026-05-04 19:12 | 47.92565 | 17.47368 | 18983 ft | 323 kts | 97° |
| 2026-05-04 19:13 | 47.92346 | 17.50700 | 18985 ft | 323 kts | 96° |
| 2026-05-04 19:13 | 47.92126 | 17.54036 | 18984 ft | 323 kts | 96° |
| 2026-05-04 19:13 | 47.91905 | 17.57371 | 18980 ft | 323 kts | 97° |
| 2026-05-04 19:13 | 47.91683 | 17.60709 | 18987 ft | 323 kts | 96° |
| 2026-05-04 19:14 | 47.91463 | 17.64002 | 18986 ft | 323 kts | 97° |
| 2026-05-04 19:14 | 47.91240 | 17.67335 | 18996 ft | 324 kts | 97° |
| 2026-05-04 19:14 | 47.91015 | 17.70671 | 18994 ft | 323 kts | 97° |
| 2026-05-04 19:14 | 47.90790 | 17.74005 | 18995 ft | 323 kts | 97° |
| 2026-05-04 19:15 | 47.90460 | 17.77312 | 18998 ft | 322 kts | 105° |
| 2026-05-04 19:15 | 47.89862 | 17.80530 | 19000 ft | 322 kts | 108° |
| 2026-05-04 19:15 | 47.89175 | 17.83707 | 18999 ft | 321 kts | 110° |
| 2026-05-04 19:15 | 47.88431 | 17.86847 | 18997 ft | 321 kts | 111° |
| 2026-05-04 19:16 | 47.87657 | 17.89958 | 19000 ft | 321 kts | 112° |
| 2026-05-04 19:16 | 47.86868 | 17.93070 | 19000 ft | 321 kts | 112° |
| 2026-05-04 19:16 | 47.86078 | 17.96175 | 18933 ft | 329 kts | 112° |
| 2026-05-04 19:16 | 47.85263 | 17.99387 | 18334 ft | 335 kts | 112° |
| 2026-05-04 19:17 | 47.84430 | 18.02685 | 17389 ft | 345 kts | 112° |
| 2026-05-04 19:17 | 47.83577 | 18.06075 | 16371 ft | 355 kts | 112° |
| 2026-05-04 19:17 | 47.82709 | 18.09533 | 15538 ft | 357 kts | 112° |
| 2026-05-04 19:17 | 47.81843 | 18.12988 | 14846 ft | 355 kts | 112° |
| 2026-05-04 19:18 | 47.80985 | 18.16414 | 14201 ft | 352 kts | 112° |
| 2026-05-04 19:18 | 47.80139 | 18.19788 | 13739 ft | 343 kts | 112° |
| 2026-05-04 19:18 | 47.79324 | 18.23033 | 13483 ft | 329 kts | 112° |
| 2026-05-04 19:18 | 47.78528 | 18.26196 | 12983 ft | 324 kts | 112° |
| 2026-05-04 19:19 | 47.77744 | 18.29297 | 12249 ft | 326 kts | 112° |
| 2026-05-04 19:19 | 47.76943 | 18.32455 | 11495 ft | 328 kts | 112° |
| 2026-05-04 19:19 | 47.76136 | 18.35630 | 10770 ft | 329 kts | 112° |
| 2026-05-04 19:19 | 47.75333 | 18.38790 | 10230 ft | 323 kts | 112° |
| 2026-05-04 19:20 | 47.74559 | 18.41846 | 10015 ft | 308 kts | 112° |
| 2026-05-04 19:20 | 47.73825 | 18.44743 | 9831 ft | 294 kts | 112° |
| 2026-05-04 19:20 | 47.73108 | 18.47561 | 9339 ft | 290 kts | 112° |
| 2026-05-04 19:20 | 47.72392 | 18.50364 | 8777 ft | 290 kts | 112° |
| 2026-05-04 19:21 | 47.71679 | 18.53149 | 8245 ft | 288 kts | 112° |
| 2026-05-04 19:21 | 47.70971 | 18.55909 | 7731 ft | 286 kts | 112° |
| 2026-05-04 19:21 | 47.70274 | 18.58631 | 7230 ft | 284 kts | 112° |
| 2026-05-04 19:21 | 47.69573 | 18.61360 | 6947 ft | 283 kts | 112° |
| 2026-05-04 19:22 | 47.68873 | 18.64088 | 6706 ft | 282 kts | 112° |
| 2026-05-04 19:22 | 47.68174 | 18.66806 | 6472 ft | 282 kts | 112° |
| 2026-05-04 19:22 | 47.67477 | 18.69518 | 6226 ft | 281 kts | 112° |
| 2026-05-04 19:22 | 47.66784 | 18.72210 | 5886 ft | 278 kts | 113° |
| 2026-05-04 19:23 | 47.66101 | 18.74869 | 5392 ft | 274 kts | 113° |
| 2026-05-04 19:23 | 47.65432 | 18.77469 | 5144 ft | 263 kts | 114° |
| 2026-05-04 19:23 | 47.64798 | 18.79939 | 4992 ft | 250 kts | 114° |
| 2026-05-04 19:23 | 47.64203 | 18.82252 | 4871 ft | 237 kts | 114° |
| 2026-05-04 19:24 | 47.63631 | 18.84475 | 4755 ft | 225 kts | 115° |
| 2026-05-04 19:24 | 47.63084 | 18.86592 | 4625 ft | 215 kts | 115° |
| 2026-05-04 19:24 | 47.62562 | 18.88609 | 4523 ft | 204 kts | 115° |
| 2026-05-04 19:24 | 47.62063 | 18.90531 | 4395 ft | 196 kts | 115° |
| 2026-05-04 19:25 | 47.61576 | 18.92398 | 4194 ft | 192 kts | 116° |
| 2026-05-04 19:25 | 47.61095 | 18.94233 | 4017 ft | 190 kts | 116° |
| 2026-05-04 19:25 | 47.60582 | 18.96032 | 3993 ft | 188 kts | 122° |
| 2026-05-04 19:25 | 47.59872 | 18.97643 | 4005 ft | 186 kts | 133° |
| 2026-05-04 19:26 | 47.59037 | 18.99061 | 3993 ft | 185 kts | 136° |
| 2026-05-04 19:26 | 47.58171 | 19.00466 | 3991 ft | 185 kts | 137° |
| 2026-05-04 19:26 | 47.57305 | 19.01871 | 4000 ft | 185 kts | 136° |
| 2026-05-04 19:26 | 47.56449 | 19.03300 | 3862 ft | 185 kts | 135° |
| 2026-05-04 19:27 | 47.55587 | 19.04722 | 3604 ft | 186 kts | 137° |
| 2026-05-04 19:27 | 47.54717 | 19.06126 | 3365 ft | 184 kts | 137° |
| 2026-05-04 19:27 | 47.53862 | 19.07512 | 3096 ft | 181 kts | 137° |
| 2026-05-04 19:27 | 47.53016 | 19.08885 | 2828 ft | 178 kts | 137° |
| 2026-05-04 19:28 | 47.52190 | 19.10227 | 2601 ft | 173 kts | 137° |
| 2026-05-04 19:28 | 47.51416 | 19.11484 | 2382 ft | 162 kts | 137° |
| 2026-05-04 19:28 | 47.50691 | 19.12661 | 2199 ft | 147 kts | 137° |
| 2026-05-04 19:28 | 47.50042 | 19.13715 | 2002 ft | 131 kts | 138° |
| 2026-05-04 19:29 | 47.49448 | 19.14674 | 1834 ft | 125 kts | 139° |
| 2026-05-04 19:29 | 47.48853 | 19.15633 | 1666 ft | 128 kts | 137° |
| 2026-05-04 19:29 | 47.48253 | 19.16603 | 1479 ft | 128 kts | 136° |
| 2026-05-04 19:29 | 47.47654 | 19.17575 | 1306 ft | 127 kts | 135° |
| 2026-05-04 19:30 | 47.47059 | 19.18539 | 1100 ft | 127 kts | 134° |
| 2026-05-04 19:30 | 47.46479 | 19.19497 | 981 ft | 127 kts | 133° |
| 2026-05-04 19:30 | 47.45896 | 19.20466 | 769 ft | 125 kts | 134° |
| 2026-05-04 19:30 | 47.45299 | 19.21400 | 646 ft | 125 kts | 133° |
| 2026-05-04 19:31 | 47.44717 | 19.22354 | 481 ft | 123 kts | 133° |
| 2026-05-04 19:31 | 47.44179 | 19.23198 | 456 ft | 102 kts | 133° |
| 2026-05-04 19:31 | 47.43752 | 19.23889 | 458 ft | 82 kts | 133° |
| 2026-05-04 19:31 | 47.43400 | 19.24457 | 456 ft | 68 kts | 132° |
| 2026-05-04 19:32 | 47.43170 | 19.24828 | 459 ft | 34 kts | 132° |
| 2026-05-04 19:32 | 47.43102 | 19.25034 | 461 ft | 17 kts | 76° |
| 2026-05-04 19:32 | 47.43167 | 19.25149 | 460 ft | 3 kts | 43° |
| 2026-05-04 19:33 | 47.43168 | 19.25150 | 460 ft | 1 kts | 43° |
| 2026-05-04 19:33 | 47.43194 | 19.25186 | 460 ft | 16 kts | 42° |
| 2026-05-04 19:33 | 47.43292 | 19.25316 | 460 ft | 21 kts | 42° |
| 2026-05-04 19:33 | 47.43403 | 19.25467 | 459 ft | 23 kts | 42° |
| 2026-05-04 19:34 | 47.43524 | 19.25629 | 460 ft | 24 kts | 41° |
| 2026-05-04 19:34 | 47.43652 | 19.25801 | 460 ft | 26 kts | 42° |
| 2026-05-04 19:34 | 47.43728 | 19.25975 | 460 ft | 19 kts | 113° |
| 2026-05-04 19:34 | 47.43677 | 19.26135 | 460 ft | 18 kts | 93° |
| 2026-05-04 19:35 | 47.43674 | 19.26316 | 460 ft | 17 kts | 106° |
| 2026-05-04 19:35 | 47.43608 | 19.26443 | 461 ft | 15 kts | 134° |
| 2026-05-04 19:35 | 47.43540 | 19.26552 | 461 ft | 10 kts | 133° |
| 2026-05-04 19:35 | 47.43500 | 19.26561 | 461 ft | 6 kts | 211° |
| 2026-05-04 19:36 | 47.43476 | 19.26529 | 460 ft | 0 kts | 222° |